sensor_id;sensor_type;location;lat;lon;timestamp;P1;durP1;ratioP1;P2;durP2;ratioP2
75061;SDS011;63641;46.526;24.612;2024-02-04T00:01:44;25.40;;;19.08;;
75061;SDS011;63641;46.526;24.612;2024-02-04T00:04:11;25.50;;;18.25;;
75061;SDS011;63641;46.526;24.612;2024-02-04T00:06:38;27.33;;;20.65;;
75061;SDS011;63641;46.526;24.612;2024-02-04T00:09:05;30.08;;;22.17;;
75061;SDS011;63641;46.526;24.612;2024-02-04T00:11:32;34.67;;;25.42;;
75061;SDS011;63641;46.526;24.612;2024-02-04T00:14:00;40.08;;;28.13;;
75061;SDS011;63641;46.526;24.612;2024-02-04T00:16:27;39.58;;;30.73;;
75061;SDS011;63641;46.526;24.612;2024-02-04T00:18:54;37.15;;;28.90;;
75061;SDS011;63641;46.526;24.612;2024-02-04T00:21:21;39.75;;;26.98;;
75061;SDS011;63641;46.526;24.612;2024-02-04T00:23:48;37.78;;;25.02;;
75061;SDS011;63641;46.526;24.612;2024-02-04T00:26:14;32.97;;;23.50;;
75061;SDS011;63641;46.526;24.612;2024-02-04T00:28:41;37.95;;;26.77;;
75061;SDS011;63641;46.526;24.612;2024-02-04T00:31:09;33.50;;;24.40;;
75061;SDS011;63641;46.526;24.612;2024-02-04T00:33:36;29.98;;;21.58;;
75061;SDS011;63641;46.526;24.612;2024-02-04T00:36:03;32.65;;;21.02;;
75061;SDS011;63641;46.526;24.612;2024-02-04T00:38:30;31.48;;;22.63;;
75061;SDS011;63641;46.526;24.612;2024-02-04T00:40:57;29.10;;;21.25;;
75061;SDS011;63641;46.526;24.612;2024-02-04T00:43:24;29.63;;;20.70;;
75061;SDS011;63641;46.526;24.612;2024-02-04T00:45:50;31.67;;;23.15;;
75061;SDS011;63641;46.526;24.612;2024-02-04T00:48:17;35.38;;;25.40;;
75061;SDS011;63641;46.526;24.612;2024-02-04T00:50:44;36.28;;;27.13;;
75061;SDS011;63641;46.526;24.612;2024-02-04T00:53:11;42.28;;;29.20;;
75061;SDS011;63641;46.526;24.612;2024-02-04T00:55:37;38.83;;;28.70;;
75061;SDS011;63641;46.526;24.612;2024-02-04T00:58:04;45.80;;;32.20;;
75061;SDS011;63641;46.526;24.612;2024-02-04T01:00:31;40.40;;;28.50;;
75061;SDS011;63641;46.526;24.612;2024-02-04T01:02:58;42.55;;;28.40;;
75061;SDS011;63641;46.526;24.612;2024-02-04T01:05:24;44.03;;;28.85;;
75061;SDS011;63641;46.526;24.612;2024-02-04T01:07:51;35.35;;;27.92;;
75061;SDS011;63641;46.526;24.612;2024-02-04T01:10:18;38.40;;;27.48;;
75061;SDS011;63641;46.526;24.612;2024-02-04T01:12:45;37.35;;;26.60;;
75061;SDS011;63641;46.526;24.612;2024-02-04T01:15:11;35.33;;;26.83;;
75061;SDS011;63641;46.526;24.612;2024-02-04T01:17:38;36.92;;;27.48;;
75061;SDS011;63641;46.526;24.612;2024-02-04T01:20:05;36.97;;;26.02;;
75061;SDS011;63641;46.526;24.612;2024-02-04T01:22:32;34.05;;;24.50;;
75061;SDS011;63641;46.526;24.612;2024-02-04T01:24:59;32.53;;;23.90;;
75061;SDS011;63641;46.526;24.612;2024-02-04T01:27:26;32.78;;;24.30;;
75061;SDS011;63641;46.526;24.612;2024-02-04T01:29:52;32.13;;;23.02;;
75061;SDS011;63641;46.526;24.612;2024-02-04T01:32:19;29.05;;;22.48;;
75061;SDS011;63641;46.526;24.612;2024-02-04T01:34:46;29.38;;;21.55;;
75061;SDS011;63641;46.526;24.612;2024-02-04T01:37:13;30.70;;;21.88;;
75061;SDS011;63641;46.526;24.612;2024-02-04T01:39:39;25.30;;;19.40;;
75061;SDS011;63641;46.526;24.612;2024-02-04T01:42:06;25.77;;;20.05;;
75061;SDS011;63641;46.526;24.612;2024-02-04T01:44:33;27.75;;;19.77;;
75061;SDS011;63641;46.526;24.612;2024-02-04T01:46:59;27.17;;;19.17;;
75061;SDS011;63641;46.526;24.612;2024-02-04T01:49:27;27.92;;;19.75;;
75061;SDS011;63641;46.526;24.612;2024-02-04T01:51:54;29.05;;;21.48;;
75061;SDS011;63641;46.526;24.612;2024-02-04T01:54:21;27.80;;;20.25;;
75061;SDS011;63641;46.526;24.612;2024-02-04T01:56:51;28.98;;;19.85;;
75061;SDS011;63641;46.526;24.612;2024-02-04T01:59:19;43.17;;;31.33;;
75061;SDS011;63641;46.526;24.612;2024-02-04T02:01:48;65.15;;;43.67;;
75061;SDS011;63641;46.526;24.612;2024-02-04T02:04:15;52.08;;;37.60;;
75061;SDS011;63641;46.526;24.612;2024-02-04T02:06:42;58.03;;;38.10;;
75061;SDS011;63641;46.526;24.612;2024-02-04T02:09:09;45.22;;;32.90;;
75061;SDS011;63641;46.526;24.612;2024-02-04T02:11:41;41.00;;;30.80;;
75061;SDS011;63641;46.526;24.612;2024-02-04T02:14:11;31.73;;;24.23;;
75061;SDS011;63641;46.526;24.612;2024-02-04T02:16:41;36.97;;;26.80;;
75061;SDS011;63641;46.526;24.612;2024-02-04T02:25:14;33.28;;;25.17;;
75061;SDS011;63641;46.526;24.612;2024-02-04T02:27:50;30.38;;;23.23;;
75061;SDS011;63641;46.526;24.612;2024-02-04T02:30:17;28.38;;;21.85;;
75061;SDS011;63641;46.526;24.612;2024-02-04T02:32:45;31.73;;;22.35;;
75061;SDS011;63641;46.526;24.612;2024-02-04T02:35:15;33.10;;;25.48;;
75061;SDS011;63641;46.526;24.612;2024-02-04T02:37:46;32.70;;;23.17;;
75061;SDS011;63641;46.526;24.612;2024-02-04T02:40:25;33.53;;;24.73;;
75061;SDS011;63641;46.526;24.612;2024-02-04T02:42:56;28.52;;;22.30;;
75061;SDS011;63641;46.526;24.612;2024-02-04T02:45:26;31.30;;;22.55;;
75061;SDS011;63641;46.526;24.612;2024-02-04T02:47:54;31.90;;;22.50;;
75061;SDS011;63641;46.526;24.612;2024-02-04T02:50:22;30.73;;;21.85;;
75061;SDS011;63641;46.526;24.612;2024-02-04T02:52:48;29.02;;;22.13;;
75061;SDS011;63641;46.526;24.612;2024-02-04T02:55:15;32.70;;;23.35;;
75061;SDS011;63641;46.526;24.612;2024-02-04T02:57:42;29.63;;;23.13;;
75061;SDS011;63641;46.526;24.612;2024-02-04T03:00:09;39.88;;;28.55;;
75061;SDS011;63641;46.526;24.612;2024-02-04T03:02:36;37.47;;;25.77;;
75061;SDS011;63641;46.526;24.612;2024-02-04T03:05:03;35.63;;;25.10;;
75061;SDS011;63641;46.526;24.612;2024-02-04T03:07:30;33.78;;;26.38;;
75061;SDS011;63641;46.526;24.612;2024-02-04T03:09:57;31.02;;;23.65;;
75061;SDS011;63641;46.526;24.612;2024-02-04T03:12:24;31.60;;;24.35;;
75061;SDS011;63641;46.526;24.612;2024-02-04T03:14:51;32.75;;;24.05;;
75061;SDS011;63641;46.526;24.612;2024-02-04T03:17:17;32.45;;;23.70;;
75061;SDS011;63641;46.526;24.612;2024-02-04T03:19:49;32.92;;;22.98;;
75061;SDS011;63641;46.526;24.612;2024-02-04T03:22:18;32.78;;;23.40;;
75061;SDS011;63641;46.526;24.612;2024-02-04T03:24:44;31.27;;;23.20;;
75061;SDS011;63641;46.526;24.612;2024-02-04T03:27:12;33.67;;;23.00;;
75061;SDS011;63641;46.526;24.612;2024-02-04T03:29:39;28.83;;;21.38;;
75061;SDS011;63641;46.526;24.612;2024-02-04T03:32:05;28.02;;;21.05;;
75061;SDS011;63641;46.526;24.612;2024-02-04T03:34:32;28.10;;;20.30;;
75061;SDS011;63641;46.526;24.612;2024-02-04T03:36:59;25.08;;;18.75;;
75061;SDS011;63641;46.526;24.612;2024-02-04T03:39:26;25.70;;;18.65;;
75061;SDS011;63641;46.526;24.612;2024-02-04T03:41:53;23.30;;;18.23;;
75061;SDS011;63641;46.526;24.612;2024-02-04T03:44:20;24.40;;;17.48;;
75061;SDS011;63641;46.526;24.612;2024-02-04T03:46:50;21.95;;;17.38;;
75061;SDS011;63641;46.526;24.612;2024-02-04T03:49:17;26.20;;;18.80;;
75061;SDS011;63641;46.526;24.612;2024-02-04T03:51:44;25.48;;;18.70;;
75061;SDS011;63641;46.526;24.612;2024-02-04T03:54:11;23.17;;;17.30;;
75061;SDS011;63641;46.526;24.612;2024-02-04T03:56:38;22.85;;;16.70;;
75061;SDS011;63641;46.526;24.612;2024-02-04T03:59:05;20.27;;;16.20;;
75061;SDS011;63641;46.526;24.612;2024-02-04T04:01:33;23.88;;;19.02;;
75061;SDS011;63641;46.526;24.612;2024-02-04T04:04:00;31.50;;;21.58;;
75061;SDS011;63641;46.526;24.612;2024-02-04T04:06:27;28.95;;;21.25;;
75061;SDS011;63641;46.526;24.612;2024-02-04T04:08:54;51.08;;;24.13;;
75061;SDS011;63641;46.526;24.612;2024-02-04T04:11:21;607.20;;;59.83;;
75061;SDS011;63641;46.526;24.612;2024-02-04T04:13:48;31.50;;;21.88;;
75061;SDS011;63641;46.526;24.612;2024-02-04T04:16:14;34.03;;;23.42;;
75061;SDS011;63641;46.526;24.612;2024-02-04T04:18:41;178.95;;;28.98;;
75061;SDS011;63641;46.526;24.612;2024-02-04T04:21:08;40.83;;;18.83;;
75061;SDS011;63641;46.526;24.612;2024-02-04T04:23:35;27.63;;;19.58;;
75061;SDS011;63641;46.526;24.612;2024-02-04T04:26:02;28.00;;;21.58;;
75061;SDS011;63641;46.526;24.612;2024-02-04T04:28:28;29.60;;;20.95;;
75061;SDS011;63641;46.526;24.612;2024-02-04T04:30:55;28.42;;;21.50;;
75061;SDS011;63641;46.526;24.612;2024-02-04T04:33:22;30.80;;;20.95;;
75061;SDS011;63641;46.526;24.612;2024-02-04T04:35:49;29.75;;;21.30;;
75061;SDS011;63641;46.526;24.612;2024-02-04T04:38:16;33.63;;;23.88;;
75061;SDS011;63641;46.526;24.612;2024-02-04T04:40:42;43.33;;;29.13;;
75061;SDS011;63641;46.526;24.612;2024-02-04T04:43:09;51.22;;;32.83;;
75061;SDS011;63641;46.526;24.612;2024-02-04T04:45:36;49.00;;;30.95;;
75061;SDS011;63641;46.526;24.612;2024-02-04T04:48:03;39.85;;;27.67;;
75061;SDS011;63641;46.526;24.612;2024-02-04T04:50:31;41.85;;;29.20;;
75061;SDS011;63641;46.526;24.612;2024-02-04T04:52:57;38.58;;;25.63;;
75061;SDS011;63641;46.526;24.612;2024-02-04T04:55:24;34.88;;;24.90;;
75061;SDS011;63641;46.526;24.612;2024-02-04T04:57:51;31.55;;;23.15;;
75061;SDS011;63641;46.526;24.612;2024-02-04T05:00:18;35.05;;;25.20;;
75061;SDS011;63641;46.526;24.612;2024-02-04T05:02:45;30.23;;;21.95;;
75061;SDS011;63641;46.526;24.612;2024-02-04T05:05:14;35.05;;;23.33;;
75061;SDS011;63641;46.526;24.612;2024-02-04T05:07:42;32.20;;;22.85;;
75061;SDS011;63641;46.526;24.612;2024-02-04T05:10:09;34.97;;;24.00;;
75061;SDS011;63641;46.526;24.612;2024-02-04T05:12:36;27.52;;;19.67;;
75061;SDS011;63641;46.526;24.612;2024-02-04T05:15:03;27.35;;;20.63;;
75061;SDS011;63641;46.526;24.612;2024-02-04T05:17:34;29.80;;;20.65;;
75061;SDS011;63641;46.526;24.612;2024-02-04T05:20:01;30.52;;;19.92;;
75061;SDS011;63641;46.526;24.612;2024-02-04T05:22:31;25.70;;;20.20;;
75061;SDS011;63641;46.526;24.612;2024-02-04T05:24:57;28.35;;;18.90;;
75061;SDS011;63641;46.526;24.612;2024-02-04T05:27:25;28.80;;;21.50;;
75061;SDS011;63641;46.526;24.612;2024-02-04T05:29:52;32.53;;;24.65;;
75061;SDS011;63641;46.526;24.612;2024-02-04T05:32:19;35.67;;;25.00;;
75061;SDS011;63641;46.526;24.612;2024-02-04T05:34:46;40.67;;;29.35;;
75061;SDS011;63641;46.526;24.612;2024-02-04T05:37:13;37.90;;;28.65;;
75061;SDS011;63641;46.526;24.612;2024-02-04T05:39:40;40.38;;;27.25;;
75061;SDS011;63641;46.526;24.612;2024-02-04T05:42:06;34.70;;;26.80;;
75061;SDS011;63641;46.526;24.612;2024-02-04T05:44:33;45.88;;;32.58;;
75061;SDS011;63641;46.526;24.612;2024-02-04T05:47:00;46.25;;;33.75;;
75061;SDS011;63641;46.526;24.612;2024-02-04T05:49:26;50.17;;;34.22;;
75061;SDS011;63641;46.526;24.612;2024-02-04T05:51:53;47.97;;;33.15;;
75061;SDS011;63641;46.526;24.612;2024-02-04T05:54:20;42.47;;;30.98;;
75061;SDS011;63641;46.526;24.612;2024-02-04T05:56:47;45.47;;;30.67;;
75061;SDS011;63641;46.526;24.612;2024-02-04T05:59:13;51.88;;;32.58;;
75061;SDS011;63641;46.526;24.612;2024-02-04T06:01:42;52.72;;;33.78;;
75061;SDS011;63641;46.526;24.612;2024-02-04T06:04:09;62.40;;;40.40;;
75061;SDS011;63641;46.526;24.612;2024-02-04T06:06:36;62.22;;;40.60;;
75061;SDS011;63641;46.526;24.612;2024-02-04T06:09:03;51.90;;;35.95;;
75061;SDS011;63641;46.526;24.612;2024-02-04T06:11:30;34.17;;;25.38;;
75061;SDS011;63641;46.526;24.612;2024-02-04T06:13:56;39.28;;;27.83;;
75061;SDS011;63641;46.526;24.612;2024-02-04T06:16:23;35.65;;;25.35;;
75061;SDS011;63641;46.526;24.612;2024-02-04T06:18:49;32.65;;;24.38;;
75061;SDS011;63641;46.526;24.612;2024-02-04T06:21:16;36.78;;;27.67;;
75061;SDS011;63641;46.526;24.612;2024-02-04T06:23:43;651.33;;;55.90;;
75061;SDS011;63641;46.526;24.612;2024-02-04T06:26:10;37.78;;;23.65;;
75061;SDS011;63641;46.526;24.612;2024-02-04T06:28:36;31.42;;;24.05;;
75061;SDS011;63641;46.526;24.612;2024-02-04T06:31:03;29.52;;;21.52;;
75061;SDS011;63641;46.526;24.612;2024-02-04T06:33:30;30.38;;;20.45;;
75061;SDS011;63641;46.526;24.612;2024-02-04T06:35:57;28.23;;;20.60;;
75061;SDS011;63641;46.526;24.612;2024-02-04T06:38:24;83.05;;;56.38;;
75061;SDS011;63641;46.526;24.612;2024-02-04T06:40:51;36.55;;;27.65;;
75061;SDS011;63641;46.526;24.612;2024-02-04T06:43:17;33.80;;;25.33;;
75061;SDS011;63641;46.526;24.612;2024-02-04T06:45:44;37.70;;;28.23;;
75061;SDS011;63641;46.526;24.612;2024-02-04T06:48:11;64.97;;;45.33;;
75061;SDS011;63641;46.526;24.612;2024-02-04T06:50:38;60.58;;;40.33;;
75061;SDS011;63641;46.526;24.612;2024-02-04T06:53:05;69.47;;;45.08;;
75061;SDS011;63641;46.526;24.612;2024-02-04T06:55:32;64.97;;;47.05;;
75061;SDS011;63641;46.526;24.612;2024-02-04T06:57:58;72.10;;;47.20;;
75061;SDS011;63641;46.526;24.612;2024-02-04T07:00:25;58.55;;;43.05;;
75061;SDS011;63641;46.526;24.612;2024-02-04T07:02:52;58.08;;;38.30;;
75061;SDS011;63641;46.526;24.612;2024-02-04T07:05:18;69.18;;;46.80;;
75061;SDS011;63641;46.526;24.612;2024-02-04T07:07:48;175.15;;;37.42;;
75061;SDS011;63641;46.526;24.612;2024-02-04T07:10:16;55.80;;;34.00;;
75061;SDS011;63641;46.526;24.612;2024-02-04T07:12:43;32.95;;;23.17;;
75061;SDS011;63641;46.526;24.612;2024-02-04T07:15:10;27.90;;;22.20;;
75061;SDS011;63641;46.526;24.612;2024-02-04T07:17:37;30.58;;;20.90;;
75061;SDS011;63641;46.526;24.612;2024-02-04T07:20:04;28.00;;;20.67;;
75061;SDS011;63641;46.526;24.612;2024-02-04T07:22:32;34.20;;;20.83;;
75061;SDS011;63641;46.526;24.612;2024-02-04T07:25:03;24.52;;;19.23;;
75061;SDS011;63641;46.526;24.612;2024-02-04T07:27:31;22.58;;;17.90;;
75061;SDS011;63641;46.526;24.612;2024-02-04T07:29:57;22.40;;;17.15;;
75061;SDS011;63641;46.526;24.612;2024-02-04T07:32:24;23.42;;;17.08;;
75061;SDS011;63641;46.526;24.612;2024-02-04T07:34:51;22.13;;;17.50;;
75061;SDS011;63641;46.526;24.612;2024-02-04T07:37:18;21.65;;;17.38;;
75061;SDS011;63641;46.526;24.612;2024-02-04T07:39:44;39.88;;;28.50;;
75061;SDS011;63641;46.526;24.612;2024-02-04T07:42:11;45.00;;;33.65;;
75061;SDS011;63641;46.526;24.612;2024-02-04T07:44:38;46.13;;;33.95;;
75061;SDS011;63641;46.526;24.612;2024-02-04T07:47:05;48.50;;;35.05;;
75061;SDS011;63641;46.526;24.612;2024-02-04T07:49:32;48.83;;;35.08;;
75061;SDS011;63641;46.526;24.612;2024-02-04T07:51:59;47.83;;;36.88;;
75061;SDS011;63641;46.526;24.612;2024-02-04T07:54:26;44.15;;;36.13;;
75061;SDS011;63641;46.526;24.612;2024-02-04T07:56:52;56.17;;;40.15;;
75061;SDS011;63641;46.526;24.612;2024-02-04T07:59:19;58.25;;;38.95;;
75061;SDS011;63641;46.526;24.612;2024-02-04T08:01:46;57.38;;;40.63;;
75061;SDS011;63641;46.526;24.612;2024-02-04T08:04:13;44.83;;;33.80;;
75061;SDS011;63641;46.526;24.612;2024-02-04T08:06:41;43.22;;;33.00;;
75061;SDS011;63641;46.526;24.612;2024-02-04T08:09:08;40.08;;;30.17;;
75061;SDS011;63641;46.526;24.612;2024-02-04T08:11:35;40.78;;;30.48;;
75061;SDS011;63641;46.526;24.612;2024-02-04T08:14:01;43.80;;;32.70;;
75061;SDS011;63641;46.526;24.612;2024-02-04T08:16:28;50.15;;;38.00;;
75061;SDS011;63641;46.526;24.612;2024-02-04T08:18:55;53.33;;;40.85;;
75061;SDS011;63641;46.526;24.612;2024-02-04T08:21:22;64.75;;;46.20;;
75061;SDS011;63641;46.526;24.612;2024-02-04T08:23:49;62.25;;;45.28;;
75061;SDS011;63641;46.526;24.612;2024-02-04T08:26:16;54.75;;;40.47;;
75061;SDS011;63641;46.526;24.612;2024-02-04T08:28:42;41.63;;;32.03;;
75061;SDS011;63641;46.526;24.612;2024-02-04T08:31:09;26.95;;;22.80;;
75061;SDS011;63641;46.526;24.612;2024-02-04T08:33:36;24.23;;;20.27;;
75061;SDS011;63641;46.526;24.612;2024-02-04T08:36:03;16.52;;;14.57;;
75061;SDS011;63641;46.526;24.612;2024-02-04T08:38:31;19.20;;;14.98;;
75061;SDS011;63641;46.526;24.612;2024-02-04T08:40:57;19.02;;;15.45;;
75061;SDS011;63641;46.526;24.612;2024-02-04T08:43:24;34.95;;;25.42;;
75061;SDS011;63641;46.526;24.612;2024-02-04T08:45:51;28.70;;;24.63;;
75061;SDS011;63641;46.526;24.612;2024-02-04T08:48:18;30.38;;;24.98;;
75061;SDS011;63641;46.526;24.612;2024-02-04T08:50:44;29.95;;;24.42;;
75061;SDS011;63641;46.526;24.612;2024-02-04T08:53:11;28.70;;;23.55;;
75061;SDS011;63641;46.526;24.612;2024-02-04T08:55:38;29.27;;;22.58;;
75061;SDS011;63641;46.526;24.612;2024-02-04T08:58:05;26.52;;;21.50;;
75061;SDS011;63641;46.526;24.612;2024-02-04T09:00:32;23.77;;;20.80;;
75061;SDS011;63641;46.526;24.612;2024-02-04T09:02:59;22.10;;;18.30;;
75061;SDS011;63641;46.526;24.612;2024-02-04T09:05:26;20.10;;;17.40;;
75061;SDS011;63641;46.526;24.612;2024-02-04T09:07:52;22.05;;;17.70;;
75061;SDS011;63641;46.526;24.612;2024-02-04T09:10:21;22.63;;;18.38;;
75061;SDS011;63641;46.526;24.612;2024-02-04T09:12:48;21.13;;;17.70;;
75061;SDS011;63641;46.526;24.612;2024-02-04T09:15:15;21.15;;;17.48;;
75061;SDS011;63641;46.526;24.612;2024-02-04T09:17:42;20.58;;;17.75;;
75061;SDS011;63641;46.526;24.612;2024-02-04T09:20:09;20.83;;;17.63;;
75061;SDS011;63641;46.526;24.612;2024-02-04T09:22:36;18.92;;;16.67;;
75061;SDS011;63641;46.526;24.612;2024-02-04T09:25:05;20.10;;;16.33;;
75061;SDS011;63641;46.526;24.612;2024-02-04T09:27:33;21.10;;;16.38;;
75061;SDS011;63641;46.526;24.612;2024-02-04T09:29:59;18.02;;;16.13;;
75061;SDS011;63641;46.526;24.612;2024-02-04T09:32:26;18.73;;;14.80;;
75061;SDS011;63641;46.526;24.612;2024-02-04T09:34:53;20.25;;;15.73;;
75061;SDS011;63641;46.526;24.612;2024-02-04T09:37:20;20.17;;;16.50;;
75061;SDS011;63641;46.526;24.612;2024-02-04T09:39:47;17.85;;;15.18;;
75061;SDS011;63641;46.526;24.612;2024-02-04T09:42:18;18.20;;;14.98;;
75061;SDS011;63641;46.526;24.612;2024-02-04T09:44:48;14.75;;;12.50;;
75061;SDS011;63641;46.526;24.612;2024-02-04T09:47:15;12.88;;;10.90;;
75061;SDS011;63641;46.526;24.612;2024-02-04T09:49:43;12.35;;;10.82;;
75061;SDS011;63641;46.526;24.612;2024-02-04T09:52:10;12.80;;;11.45;;
75061;SDS011;63641;46.526;24.612;2024-02-04T09:54:46;12.35;;;11.05;;
75061;SDS011;63641;46.526;24.612;2024-02-04T09:57:16;11.18;;;10.00;;
75061;SDS011;63641;46.526;24.612;2024-02-04T09:59:44;13.05;;;10.85;;
75061;SDS011;63641;46.526;24.612;2024-02-04T10:02:11;11.43;;;9.95;;
75061;SDS011;63641;46.526;24.612;2024-02-04T10:04:42;9.77;;;8.77;;
75061;SDS011;63641;46.526;24.612;2024-02-04T10:07:09;14.07;;;12.57;;
75061;SDS011;63641;46.526;24.612;2024-02-04T10:09:36;16.45;;;13.25;;
75061;SDS011;63641;46.526;24.612;2024-02-04T10:12:03;12.05;;;10.80;;
75061;SDS011;63641;46.526;24.612;2024-02-04T10:14:31;9.75;;;8.80;;
75061;SDS011;63641;46.526;24.612;2024-02-04T10:16:58;9.80;;;8.35;;
75061;SDS011;63641;46.526;24.612;2024-02-04T10:19:24;9.25;;;8.25;;
75061;SDS011;63641;46.526;24.612;2024-02-04T10:21:59;9.18;;;8.05;;
75061;SDS011;63641;46.526;24.612;2024-02-04T10:24:26;8.93;;;8.02;;
75061;SDS011;63641;46.526;24.612;2024-02-04T10:26:57;8.35;;;7.55;;
75061;SDS011;63641;46.526;24.612;2024-02-04T10:29:24;8.07;;;7.28;;
75061;SDS011;63641;46.526;24.612;2024-02-04T10:31:57;7.97;;;7.20;;
75061;SDS011;63641;46.526;24.612;2024-02-04T10:34:27;7.68;;;6.88;;
75061;SDS011;63641;46.526;24.612;2024-02-04T10:36:54;8.77;;;7.20;;
75061;SDS011;63641;46.526;24.612;2024-02-04T10:39:22;8.68;;;7.78;;
75061;SDS011;63641;46.526;24.612;2024-02-04T10:41:49;8.32;;;7.15;;
75061;SDS011;63641;46.526;24.612;2024-02-04T10:44:20;9.52;;;8.48;;
75061;SDS011;63641;46.526;24.612;2024-02-04T10:46:49;9.80;;;8.65;;
75061;SDS011;63641;46.526;24.612;2024-02-04T10:49:18;9.75;;;8.70;;
75061;SDS011;63641;46.526;24.612;2024-02-04T10:51:45;9.45;;;7.80;;
75061;SDS011;63641;46.526;24.612;2024-02-04T10:54:16;10.40;;;8.38;;
75061;SDS011;63641;46.526;24.612;2024-02-04T10:56:45;8.38;;;7.13;;
75061;SDS011;63641;46.526;24.612;2024-02-04T10:59:18;8.95;;;8.05;;
75061;SDS011;63641;46.526;24.612;2024-02-04T11:01:46;13.13;;;9.00;;
75061;SDS011;63641;46.526;24.612;2024-02-04T11:04:15;9.55;;;8.18;;
75061;SDS011;63641;46.526;24.612;2024-02-04T11:06:44;11.85;;;9.50;;
75061;SDS011;63641;46.526;24.612;2024-02-04T11:09:12;12.85;;;10.32;;
75061;SDS011;63641;46.526;24.612;2024-02-04T11:11:40;11.18;;;9.65;;
75061;SDS011;63641;46.526;24.612;2024-02-04T11:14:09;10.75;;;9.20;;
75061;SDS011;63641;46.526;24.612;2024-02-04T11:19:17;10.25;;;8.52;;
75061;SDS011;63641;46.526;24.612;2024-02-04T11:27:43;7.28;;;6.57;;
75061;SDS011;63641;46.526;24.612;2024-02-04T11:30:10;8.10;;;6.80;;
75061;SDS011;63641;46.526;24.612;2024-02-04T11:32:37;9.15;;;7.63;;
75061;SDS011;63641;46.526;24.612;2024-02-04T11:35:06;9.50;;;7.43;;
75061;SDS011;63641;46.526;24.612;2024-02-04T11:37:34;13.70;;;11.25;;
75061;SDS011;63641;46.526;24.612;2024-02-04T11:40:03;13.23;;;10.27;;
75061;SDS011;63641;46.526;24.612;2024-02-04T11:42:31;14.90;;;11.98;;
75061;SDS011;63641;46.526;24.612;2024-02-04T11:45:12;11.65;;;9.55;;
75061;SDS011;63641;46.526;24.612;2024-02-04T11:47:40;14.60;;;10.65;;
75061;SDS011;63641;46.526;24.612;2024-02-04T11:50:08;15.60;;;12.30;;
75061;SDS011;63641;46.526;24.612;2024-02-04T11:52:37;15.68;;;12.77;;
75061;SDS011;63641;46.526;24.612;2024-02-04T11:55:06;15.63;;;11.95;;
75061;SDS011;63641;46.526;24.612;2024-02-04T11:57:39;16.83;;;12.82;;
75061;SDS011;63641;46.526;24.612;2024-02-04T12:00:07;14.90;;;12.05;;
75061;SDS011;63641;46.526;24.612;2024-02-04T12:02:37;12.32;;;10.63;;
75061;SDS011;63641;46.526;24.612;2024-02-04T12:05:04;13.23;;;10.15;;
75061;SDS011;63641;46.526;24.612;2024-02-04T12:07:32;13.75;;;10.15;;
75061;SDS011;63641;46.526;24.612;2024-02-04T12:09:59;12.65;;;10.30;;
75061;SDS011;63641;46.526;24.612;2024-02-04T12:12:26;13.82;;;10.95;;
75061;SDS011;63641;46.526;24.612;2024-02-04T12:14:53;12.73;;;10.82;;
75061;SDS011;63641;46.526;24.612;2024-02-04T12:17:20;13.32;;;11.40;;
75061;SDS011;63641;46.526;24.612;2024-02-04T12:19:47;13.85;;;11.18;;
75061;SDS011;63641;46.526;24.612;2024-02-04T12:22:15;9.95;;;8.95;;
75061;SDS011;63641;46.526;24.612;2024-02-04T12:24:42;11.30;;;9.30;;
75061;SDS011;63641;46.526;24.612;2024-02-04T12:27:09;11.32;;;10.13;;
75061;SDS011;63641;46.526;24.612;2024-02-04T12:29:35;9.95;;;8.95;;
75061;SDS011;63641;46.526;24.612;2024-02-04T12:32:02;12.43;;;10.98;;
75061;SDS011;63641;46.526;24.612;2024-02-04T12:34:30;14.32;;;11.52;;
75061;SDS011;63641;46.526;24.612;2024-02-04T12:37:00;13.50;;;11.25;;
75061;SDS011;63641;46.526;24.612;2024-02-04T12:39:28;9.60;;;8.48;;
75061;SDS011;63641;46.526;24.612;2024-02-04T12:41:55;8.68;;;7.78;;
75061;SDS011;63641;46.526;24.612;2024-02-04T12:44:22;10.07;;;8.73;;
75061;SDS011;63641;46.526;24.612;2024-02-04T12:46:50;11.20;;;9.10;;
75061;SDS011;63641;46.526;24.612;2024-02-04T12:49:19;9.60;;;8.63;;
75061;SDS011;63641;46.526;24.612;2024-02-04T12:51:50;10.38;;;9.27;;
75061;SDS011;63641;46.526;24.612;2024-02-04T12:54:22;10.38;;;9.10;;
75061;SDS011;63641;46.526;24.612;2024-02-04T12:56:50;10.32;;;8.63;;
75061;SDS011;63641;46.526;24.612;2024-02-04T13:01:57;11.10;;;10.00;;
75061;SDS011;63641;46.526;24.612;2024-02-04T13:04:32;10.75;;;9.65;;
75061;SDS011;63641;46.526;24.612;2024-02-04T13:07:09;12.63;;;11.30;;
75061;SDS011;63641;46.526;24.612;2024-02-04T13:09:43;15.95;;;11.68;;
75061;SDS011;63641;46.526;24.612;2024-02-04T13:12:11;15.38;;;12.55;;
75061;SDS011;63641;46.526;24.612;2024-02-04T13:14:42;12.52;;;11.10;;
75061;SDS011;63641;46.526;24.612;2024-02-04T13:17:09;16.05;;;11.40;;
75061;SDS011;63641;46.526;24.612;2024-02-04T13:19:37;13.45;;;11.65;;
75061;SDS011;63641;46.526;24.612;2024-02-04T13:22:05;13.32;;;11.75;;
75061;SDS011;63641;46.526;24.612;2024-02-04T13:24:33;13.93;;;11.20;;
75061;SDS011;63641;46.526;24.612;2024-02-04T13:27:00;13.35;;;10.65;;
75061;SDS011;63641;46.526;24.612;2024-02-04T13:29:29;13.02;;;10.90;;
75061;SDS011;63641;46.526;24.612;2024-02-04T13:31:56;16.40;;;10.90;;
75061;SDS011;63641;46.526;24.612;2024-02-04T13:34:24;10.77;;;9.68;;
75061;SDS011;63641;46.526;24.612;2024-02-04T13:36:51;14.05;;;12.18;;
75061;SDS011;63641;46.526;24.612;2024-02-04T13:39:18;42.78;;;26.67;;
75061;SDS011;63641;46.526;24.612;2024-02-04T13:41:44;46.78;;;27.20;;
75061;SDS011;63641;46.526;24.612;2024-02-04T13:44:11;34.88;;;18.83;;
75061;SDS011;63641;46.526;24.612;2024-02-04T13:46:38;29.60;;;16.85;;
75061;SDS011;63641;46.526;24.612;2024-02-04T13:49:09;32.25;;;16.88;;
75061;SDS011;63641;46.526;24.612;2024-02-04T13:51:36;22.70;;;14.27;;
75061;SDS011;63641;46.526;24.612;2024-02-04T13:54:10;17.52;;;11.77;;
75061;SDS011;63641;46.526;24.612;2024-02-04T13:56:42;18.80;;;13.05;;
75061;SDS011;63641;46.526;24.612;2024-02-04T13:59:09;12.10;;;10.90;;
75061;SDS011;63641;46.526;24.612;2024-02-04T14:01:36;13.82;;;10.40;;
75061;SDS011;63641;46.526;24.612;2024-02-04T14:04:03;12.30;;;10.73;;
75061;SDS011;63641;46.526;24.612;2024-02-04T14:06:30;11.77;;;10.57;;
75061;SDS011;63641;46.526;24.612;2024-02-04T14:08:57;13.65;;;11.77;;
75061;SDS011;63641;46.526;24.612;2024-02-04T14:11:23;12.52;;;11.32;;
75061;SDS011;63641;46.526;24.612;2024-02-04T14:13:50;12.50;;;11.20;;
75061;SDS011;63641;46.526;24.612;2024-02-04T14:16:17;13.73;;;12.00;;
75061;SDS011;63641;46.526;24.612;2024-02-04T14:18:43;13.10;;;11.45;;
75061;SDS011;63641;46.526;24.612;2024-02-04T14:21:13;11.52;;;10.32;;
75061;SDS011;63641;46.526;24.612;2024-02-04T14:23:42;12.88;;;11.43;;
75061;SDS011;63641;46.526;24.612;2024-02-04T14:26:16;15.20;;;11.40;;
75061;SDS011;63641;46.526;24.612;2024-02-04T14:31:10;11.10;;;9.98;;
75061;SDS011;63641;46.526;24.612;2024-02-04T14:33:37;10.95;;;9.85;;